Time;durP1;ratioP1;P1;durP2;ratioP2;P2;SDS_P1;SDS_P2;PMS_P1;PMS_P2;Temp;Humidity;BMP_temperature;BMP_pressure;BME280_temperature;BME280_humidity;BME280_pressure;Samples;Min_cycle;Max_cycle;Signal;HPM_P1;HPM_P2
2023/08/03 00:00:58;;;;;;;7.72;1.70;;;43.80;24.70;;;;;;5053165;28;21248;-59
2023/08/03 00:03:24;;;;;;;4.28;1.55;;;43.80;25.10;;;;;;5052126;28;20496;-61
2023/08/03 00:05:51;;;;;;;6.70;1.77;;;43.80;25.20;;;;;;5052226;28;20067;-59
2023/08/03 00:08:17;;;;;;;14.45;2.55;;;43.80;25.10;;;;;;5058426;28;20378;-60
2023/08/03 00:10:43;;;;;;;7.45;1.73;;;43.80;25.50;;;;;;5052621;28;20132;-61
2023/08/03 00:13:10;;;;;;;6.18;1.95;;;43.80;25.20;;;;;;5053061;28;20055;-56
2023/08/03 00:15:36;;;;;;;57.45;4.60;;;43.80;25.70;;;;;;5056659;28;20050;-56
2023/08/03 00:18:02;;;;;;;7.57;1.45;;;43.70;25.40;;;;;;5051144;28;20059;-56
2023/08/03 00:20:29;;;;;;;2.90;1.52;;;43.60;25.10;;;;;;5054062;28;20051;-60
2023/08/03 00:22:55;;;;;;;3.72;1.60;;;43.70;25.50;;;;;;5052779;28;20051;-60
2023/08/03 00:25:22;;;;;;;3.08;1.50;;;43.70;25.50;;;;;;5055477;28;20060;-56
2023/08/03 00:27:49;;;;;;;11.10;1.60;;;43.60;25.00;;;;;;5057376;28;20048;-56
2023/08/03 00:30:15;;;;;;;4.75;1.50;;;43.70;25.40;;;;;;5055702;28;20467;-57
2023/08/03 00:32:42;;;;;;;4.88;1.40;;;43.60;25.20;;;;;;5054123;28;20123;-57
2023/08/03 00:35:09;;;;;;;5.57;1.50;;;43.60;24.90;;;;;;5052969;28;20558;-54
2023/08/03 00:37:37;;;;;;;8.73;1.50;;;43.50;25.10;;;;;;5051858;28;20053;-55
2023/08/03 00:40:04;;;;;;;6.28;1.60;;;43.40;24.90;;;;;;5052519;28;20070;-58
2023/08/03 00:42:30;;;;;;;5.35;1.50;;;43.30;25.10;;;;;;5051263;28;20047;-56
2023/08/03 00:44:56;;;;;;;3.92;1.50;;;43.30;25.20;;;;;;5053253;28;20056;-58
2023/08/03 00:47:23;;;;;;;2.30;1.40;;;43.30;25.40;;;;;;5053665;28;20051;-53
2023/08/03 00:49:49;;;;;;;5.45;1.30;;;43.30;25.60;;;;;;5053870;28;20133;-55
2023/08/03 00:52:15;;;;;;;6.93;1.40;;;43.20;25.30;;;;;;5055542;28;20040;-56
2023/08/03 00:54:43;;;;;;;2.97;1.33;;;43.20;24.80;;;;;;5052673;28;20088;-57
2023/08/03 00:57:09;;;;;;;4.70;1.60;;;43.10;24.90;;;;;;5054259;28;20060;-55
2023/08/03 00:59:36;;;;;;;4.35;1.50;;;43.10;25.50;;;;;;5051016;28;20055;-55
2023/08/03 01:02:02;;;;;;;5.35;1.75;;;43.00;25.10;;;;;;5051394;28;20598;-55
2023/08/03 01:04:28;;;;;;;3.70;1.40;;;43.00;24.90;;;;;;5053476;28;20114;-56
2023/08/03 01:06:55;;;;;;;4.93;1.60;;;43.00;25.10;;;;;;5053469;28;20047;-55
2023/08/03 01:09:21;;;;;;;5.20;1.45;;;42.90;25.30;;;;;;5050452;28;20077;-55
2023/08/03 01:11:48;;;;;;;4.10;1.75;;;42.80;25.40;;;;;;5052487;28;20052;-56
2023/08/03 01:14:14;;;;;;;9.90;1.95;;;42.80;25.60;;;;;;5052725;28;20084;-54
2023/08/03 01:16:41;;;;;;;2.60;1.50;;;42.90;25.50;;;;;;5051161;28;20064;-55
2023/08/03 01:19:11;;;;;;;5.47;1.40;;;42.80;25.40;;;;;;5055484;28;20483;-55
2023/08/03 01:21:38;;;;;;;5.65;1.30;;;42.70;25.20;;;;;;5049799;28;20057;-55
2023/08/03 01:24:04;;;;;;;10.98;2.50;;;42.60;25.30;;;;;;5048687;28;20073;-56
2023/08/03 01:26:31;;;;;;;6.95;2.03;;;42.60;25.30;;;;;;5051305;28;20150;-55
2023/08/03 01:28:58;;;;;;;10.68;2.10;;;42.60;25.20;;;;;;5053279;28;20423;-56
2023/08/03 01:31:26;;;;;;;15.82;2.03;;;42.50;25.40;;;;;;5054026;28;20051;-54
2023/08/03 01:33:53;;;;;;;14.18;2.15;;;42.30;25.60;;;;;;5055243;28;21555;-55
2023/08/03 01:36:20;;;;;;;6.78;1.70;;;42.10;25.40;;;;;;5052921;28;20052;-54
2023/08/03 01:39:20;;;;;;;13.23;1.80;;;42.10;25.40;;;;;;5052431;28;20148;-55
2023/08/03 01:41:48;;;;;;;13.73;1.98;;;42.00;25.50;;;;;;5054258;28;20071;-57
2023/08/03 01:44:30;;;;;;;18.27;2.10;;;41.90;25.70;;;;;;5054981;28;20156;-57
2023/08/03 01:46:58;;;;;;;14.50;2.17;;;42.10;25.60;;;;;;5055514;28;20045;-57
2023/08/03 01:49:29;;;;;;;9.25;1.60;;;42.50;25.70;;;;;;5049525;28;20522;-55
2023/08/03 01:51:55;;;;;;;12.88;2.13;;;42.50;25.70;;;;;;5049352;28;20630;-55
2023/08/03 01:54:22;;;;;;;14.07;1.92;;;42.20;25.50;;;;;;5051504;28;20076;-56
2023/08/03 01:56:48;;;;;;;9.60;2.20;;;42.10;25.60;;;;;;5055962;28;20160;-57
2023/08/03 01:59:15;;;;;;;10.18;1.60;;;42.00;25.60;;;;;;5056918;28;20067;-58
2023/08/03 02:01:41;;;;;;;14.43;2.05;;;42.30;25.30;;;;;;5057481;28;20519;-55
2023/08/03 02:04:08;;;;;;;13.18;1.70;;;42.20;24.80;;;;;;5053686;28;20072;-55
2023/08/03 02:06:36;;;;;;;7.57;2.03;;;41.90;25.20;;;;;;5051406;28;20059;-57
2023/08/03 02:09:04;;;;;;;23.80;2.60;;;41.50;25.20;;;;;;5052089;28;21173;-55
2023/08/03 02:11:30;;;;;;;5.05;2.00;;;41.10;25.30;;;;;;5051686;28;20067;-54
2023/08/03 02:13:57;;;;;;;10.82;2.03;;;40.90;25.70;;;;;;5055130;28;20064;-51
2023/08/03 02:16:23;;;;;;;33.28;3.85;;;40.80;25.40;;;;;;5049360;28;20066;-57
2023/08/03 02:18:49;;;;;;;12.00;2.25;;;40.60;25.40;;;;;;5055471;28;20395;-56
2023/08/03 02:21:16;;;;;;;12.27;1.80;;;40.50;25.50;;;;;;5056193;28;20182;-58
2023/08/03 02:23:42;;;;;;;12.93;1.98;;;40.40;25.60;;;;;;5053179;28;20062;-56
2023/08/03 02:26:09;;;;;;;16.35;1.92;;;40.20;25.80;;;;;;5048416;28;20070;-57
2023/08/03 02:28:35;;;;;;;7.95;2.47;;;40.10;25.70;;;;;;5050276;28;20517;-55
2023/08/03 02:31:02;;;;;;;10.55;1.77;;;40.00;25.30;;;;;;5051150;28;20526;-55
2023/08/03 02:33:28;;;;;;;12.38;1.75;;;39.90;25.30;;;;;;5053567;28;20067;-56
2023/08/03 02:35:54;;;;;;;19.08;2.55;;;39.70;25.50;;;;;;5053478;28;20068;-54
2023/08/03 02:38:21;;;;;;;11.70;2.38;;;39.60;25.80;;;;;;5054371;28;20068;-55
2023/08/03 02:40:47;;;;;;;11.68;2.25;;;39.60;25.80;;;;;;5052984;28;20063;-57
2023/08/03 02:43:13;;;;;;;12.65;2.35;;;39.50;26.10;;;;;;5052883;28;20122;-55
2023/08/03 02:45:40;;;;;;;13.48;2.28;;;39.40;26.50;;;;;;5049797;28;20547;-56
2023/08/03 02:48:06;;;;;;;14.75;2.15;;;39.30;26.70;;;;;;5050593;28;20208;-60
2023/08/03 02:50:33;;;;;;;12.88;2.00;;;39.20;26.90;;;;;;5049454;28;20063;-56
2023/08/03 02:52:59;;;;;;;9.27;2.30;;;39.20;27.00;;;;;;5053257;28;20115;-54
2023/08/03 02:55:25;;;;;;;14.63;2.55;;;39.10;27.10;;;;;;5052537;28;20076;-55
2023/08/03 02:57:52;;;;;;;11.32;2.00;;;39.00;27.00;;;;;;5049405;28;20075;-55
2023/08/03 03:00:18;;;;;;;9.57;2.08;;;39.00;26.90;;;;;;5049483;28;20082;-53
2023/08/03 03:02:45;;;;;;;7.85;1.80;;;38.90;27.00;;;;;;5050294;28;20170;-58
2023/08/03 03:05:11;;;;;;;12.00;2.20;;;38.80;27.00;;;;;;5050403;28;20516;-60
2023/08/03 03:07:38;;;;;;;10.90;2.28;;;38.80;27.00;;;;;;5051148;28;20120;-59
2023/08/03 03:10:04;;;;;;;6.93;2.33;;;38.70;26.70;;;;;;5049442;28;20093;-58
2023/08/03 03:12:31;;;;;;;7.88;2.10;;;38.60;26.90;;;;;;5050494;28;20086;-59
2023/08/03 03:14:57;;;;;;;7.93;2.30;;;38.60;27.10;;;;;;5050629;28;20135;-60
2023/08/03 03:17:23;;;;;;;8.75;2.42;;;38.50;27.30;;;;;;5053629;28;20088;-57
2023/08/03 03:19:50;;;;;;;12.70;2.22;;;38.40;27.00;;;;;;5055042;28;20082;-59
2023/08/03 03:22:16;;;;;;;10.05;2.67;;;38.30;27.10;;;;;;5055419;28;20068;-60
2023/08/03 03:24:43;;;;;;;8.80;2.38;;;38.30;26.90;;;;;;5049838;28;20124;-59
2023/08/03 03:27:09;;;;;;;8.43;2.20;;;38.20;26.90;;;;;;5052134;28;20079;-60
2023/08/03 03:29:36;;;;;;;11.48;2.17;;;38.20;27.00;;;;;;5051039;28;20895;-60
2023/08/03 03:32:02;;;;;;;7.88;2.05;;;38.20;26.90;;;;;;5049327;28;20387;-57
2023/08/03 03:34:28;;;;;;;6.47;2.35;;;38.10;26.50;;;;;;5058697;28;20088;-60
2023/08/03 03:36:55;;;;;;;8.23;2.47;;;38.00;26.60;;;;;;5058408;28;20575;-60
2023/08/03 03:39:21;;;;;;;10.82;2.53;;;38.00;26.60;;;;;;5054592;28;20161;-59
2023/08/03 03:41:48;;;;;;;7.20;2.20;;;37.90;26.50;;;;;;5053393;28;20172;-59
2023/08/03 03:44:14;;;;;;;11.15;2.40;;;37.90;26.30;;;;;;5054800;28;20117;-57
2023/08/03 03:46:40;;;;;;;14.32;2.15;;;37.80;26.50;;;;;;5051072;28;20081;-60
2023/08/03 03:49:07;;;;;;;9.70;2.03;;;37.70;26.50;;;;;;5050164;28;20479;-58
2023/08/03 03:51:33;;;;;;;4.85;1.73;;;37.60;26.20;;;;;;5048504;28;20088;-57
2023/08/03 03:53:59;;;;;;;4.97;1.67;;;37.50;26.50;;;;;;5057943;28;20117;-57
2023/08/03 03:56:26;;;;;;;8.52;2.05;;;37.40;26.70;;;;;;5054762;28;20085;-59
2023/08/03 03:58:52;;;;;;;6.10;1.90;;;37.30;26.80;;;;;;5053312;28;20537;-56
2023/08/03 04:01:18;;;;;;;6.97;2.33;;;37.30;27.10;;;;;;5056388;28;20095;-59
2023/08/03 04:03:45;;;;;;;6.03;1.88;;;37.20;27.60;;;;;;5056289;28;20088;-59
2023/08/03 04:06:11;;;;;;;5.03;2.20;;;37.10;27.30;;;;;;5056549;28;20112;-60
2023/08/03 04:08:38;;;;;;;3.65;2.13;;;37.00;27.60;;;;;;5059884;28;20075;-60
2023/08/03 04:11:04;;;;;;;7.20;2.20;;;37.00;27.60;;;;;;5054366;28;20077;-56
2023/08/03 04:13:30;;;;;;;8.05;1.90;;;36.90;27.30;;;;;;5055138;28;20085;-59
2023/08/03 04:15:57;;;;;;;9.00;2.05;;;36.90;27.40;;;;;;5054824;28;20090;-64
2023/08/03 04:18:23;;;;;;;16.70;2.42;;;36.90;27.50;;;;;;5052532;28;20484;-60
2023/08/03 04:20:50;;;;;;;10.15;1.70;;;36.80;27.10;;;;;;5054410;28;20085;-61
2023/08/03 04:23:16;;;;;;;8.93;1.90;;;36.80;27.70;;;;;;5060646;28;20084;-59
2023/08/03 04:25:43;;;;;;;6.47;1.80;;;36.70;27.20;;;;;;5057548;28;20111;-59
2023/08/03 04:28:09;;;;;;;6.50;2.08;;;36.70;27.00;;;;;;5053604;28;20096;-58
2023/08/03 04:30:35;;;;;;;4.82;2.15;;;36.60;26.90;;;;;;5056264;28;20084;-59
2023/08/03 04:33:02;;;;;;;5.35;1.90;;;36.60;26.80;;;;;;5053937;28;20091;-60
2023/08/03 04:35:28;;;;;;;5.57;1.80;;;36.50;26.50;;;;;;5054634;28;20091;-60
2023/08/03 04:37:55;;;;;;;5.72;1.77;;;36.50;26.40;;;;;;5053456;28;20142;-60
2023/08/03 04:40:21;;;;;;;5.63;2.00;;;36.40;26.40;;;;;;5051980;28;20080;-59
2023/08/03 04:42:47;;;;;;;4.03;1.58;;;36.40;26.00;;;;;;5051730;28;20155;-60
2023/08/03 04:45:14;;;;;;;7.45;1.67;;;36.40;26.40;;;;;;5056666;28;20119;-58
2023/08/03 04:47:40;;;;;;;4.40;1.70;;;36.40;26.20;;;;;;5055627;28;20644;-61
2023/08/03 04:50:07;;;;;;;9.43;1.70;;;36.30;25.90;;;;;;5054731;28;20469;-59
2023/08/03 04:52:33;;;;;;;6.63;2.05;;;36.30;25.50;;;;;;5055761;28;20068;-59
2023/08/03 04:55:00;;;;;;;11.32;2.10;;;36.30;25.70;;;;;;5054366;28;20975;-59
2023/08/03 04:57:26;;;;;;;5.10;1.80;;;36.30;25.90;;;;;;5055982;28;20082;-60
2023/08/03 04:59:52;;;;;;;7.00;2.25;;;36.30;25.30;;;;;;5053566;28;20583;-59
2023/08/03 05:02:19;;;;;;;5.22;2.33;;;36.30;25.40;;;;;;5054418;28;20450;-60
2023/08/03 05:04:45;;;;;;;3.55;1.83;;;36.20;25.50;;;;;;5053555;28;20576;-59
2023/08/03 05:07:11;;;;;;;4.55;1.60;;;36.20;25.70;;;;;;5056092;28;20076;-60
2023/08/03 05:09:38;;;;;;;2.78;1.30;;;36.10;26.10;;;;;;5054935;28;20112;-60
2023/08/03 05:12:04;;;;;;;4.75;1.60;;;36.00;26.20;;;;;;5060173;28;20084;-61
2023/08/03 05:14:31;;;;;;;3.80;1.20;;;35.90;26.20;;;;;;5057941;28;20092;-60
2023/08/03 05:16:57;;;;;;;4.68;1.50;;;35.80;26.50;;;;;;5056182;28;20071;-61
2023/08/03 05:19:23;;;;;;;4.22;1.60;;;35.80;26.60;;;;;;5053400;28;20084;-59
2023/08/03 05:21:50;;;;;;;4.47;2.00;;;35.70;26.80;;;;;;5056194;28;20080;-59
2023/08/03 05:24:17;;;;;;;8.25;2.17;;;35.70;26.80;;;;;;5056013;28;20111;-60
2023/08/03 05:26:43;;;;;;;3.55;1.70;;;35.60;26.90;;;;;;5057306;28;20084;-57
2023/08/03 05:29:09;;;;;;;5.40;1.70;;;35.60;26.90;;;;;;5061469;28;20222;-59
2023/08/03 05:31:36;;;;;;;4.03;2.20;;;35.50;27.40;;;;;;5059179;28;20217;-59
2023/08/03 05:34:02;;;;;;;5.22;1.70;;;35.40;27.50;;;;;;5058546;28;20076;-60
2023/08/03 05:36:28;;;;;;;9.45;2.50;;;35.30;27.70;;;;;;5057071;28;20124;-57
2023/08/03 05:38:55;;;;;;;8.43;2.22;;;35.50;27.60;;;;;;5057374;28;20137;-60
2023/08/03 05:41:25;;;;;;;6.38;1.85;;;35.60;27.70;;;;;;5053228;28;20560;-59
2023/08/03 05:43:52;;;;;;;6.22;3.75;;;35.70;27.90;;;;;;5052213;28;20198;-60
2023/08/03 05:46:18;;;;;;;20.48;4.57;;;35.80;27.80;;;;;;5057598;28;20102;-61
2023/08/03 05:48:52;;;;;;;13.27;3.05;;;35.80;27.50;;;;;;5059485;28;20075;-59
2023/08/03 05:51:28;;;;;;;8.10;2.50;;;35.80;27.80;;;;;;5058130;28;20080;-61
2023/08/03 05:53:56;;;;;;;8.20;2.92;;;35.90;28.00;;;;;;5054586;28;20162;-59
2023/08/03 05:56:23;;;;;;;19.70;3.85;;;35.90;27.60;;;;;;5051698;28;20453;-60
2023/08/03 05:58:50;;;;;;;12.23;2.65;;;35.90;28.70;;;;;;5053039;28;20153;-60
2023/08/03 06:01:21;;;;;;;8.02;2.38;;;35.70;27.70;;;;;;5056647;28;20083;-57
2023/08/03 06:03:50;;;;;;;9.27;2.50;;;35.70;30.30;;;;;;5054994;28;20182;-60
2023/08/03 06:06:19;;;;;;;10.07;2.35;;;35.60;28.00;;;;;;5057445;28;20093;-60
2023/08/03 06:08:49;;;;;;;6.55;2.65;;;35.50;27.60;;;;;;5054057;28;20108;-61
2023/08/03 06:11:20;;;;;;;6.72;1.90;;;35.50;27.10;;;;;;5058257;28;20160;-59
2023/08/03 06:13:47;;;;;;;5.35;2.25;;;35.40;27.00;;;;;;5051299;28;20092;-58
2023/08/03 06:16:15;;;;;;;9.95;3.53;;;35.40;26.90;;;;;;5052510;28;20495;-59
2023/08/03 06:18:48;;;;;;;9.00;3.88;;;35.50;27.80;;;;;;5052029;28;20082;-60
2023/08/03 06:21:16;;;;;;;8.65;3.78;;;35.40;27.30;;;;;;5049398;28;20081;-53
2023/08/03 06:23:53;;;;;;;7.68;2.55;;;35.40;27.20;;;;;;5054786;28;20084;-59
2023/08/03 06:26:21;;;;;;;5.72;1.98;;;35.40;27.00;;;;;;5060302;28;20504;-60
2023/08/03 06:28:53;;;;;;;5.32;1.80;;;35.30;26.70;;;;;;5056011;28;20595;-60
2023/08/03 06:31:23;;;;;;;5.88;1.65;;;35.20;26.70;;;;;;5055526;28;20156;-60
2023/08/03 06:33:49;;;;;;;5.82;2.05;;;35.20;26.90;;;;;;5055753;28;20114;-58
2023/08/03 06:36:21;;;;;;;4.40;1.77;;;35.10;27.00;;;;;;5052975;28;20553;-60
2023/08/03 06:38:47;;;;;;;4.15;1.70;;;35.10;26.90;;;;;;5051178;28;20099;-61
2023/08/03 06:41:14;;;;;;;5.88;2.00;;;35.00;27.10;;;;;;5051906;28;20081;-56
2023/08/03 06:43:40;;;;;;;4.03;1.77;;;35.10;27.00;;;;;;5052501;28;20137;-62
2023/08/03 06:46:07;;;;;;;5.68;1.85;;;35.10;27.00;;;;;;5050862;28;20129;-57
2023/08/03 06:48:34;;;;;;;5.20;2.17;;;35.00;26.60;;;;;;5053841;28;20111;-57
2023/08/03 06:51:04;;;;;;;5.07;1.80;;;35.00;26.60;;;;;;5061455;28;20072;-59
2023/08/03 06:53:31;;;;;;;3.25;1.60;;;35.00;26.30;;;;;;5056753;28;20171;-60
2023/08/03 06:55:57;;;;;;;6.30;1.73;;;35.10;26.50;;;;;;5061942;28;20129;-61
2023/08/03 06:58:24;;;;;;;5.88;1.83;;;35.10;26.50;;;;;;5052307;28;20082;-60
2023/08/03 07:00:50;;;;;;;5.95;2.05;;;35.00;26.30;;;;;;5054078;28;20171;-59
2023/08/03 07:03:17;;;;;;;9.18;2.05;;;35.00;26.10;;;;;;5057199;28;20153;-60
2023/08/03 07:05:43;;;;;;;3.28;1.55;;;35.00;26.00;;;;;;5057927;28;20183;-59
2023/08/03 07:08:10;;;;;;;2.45;1.52;;;35.00;25.70;;;;;;5055211;28;20511;-61
2023/08/03 07:10:37;;;;;;;2.63;1.63;;;35.00;26.00;;;;;;5060158;28;20096;-58
2023/08/03 07:13:04;;;;;;;5.85;1.65;;;35.00;25.90;;;;;;5057951;28;20099;-61
2023/08/03 07:15:35;;;;;;;6.97;1.80;;;35.00;25.80;;;;;;5058864;28;20080;-61
2023/08/03 07:18:05;;;;;;;5.60;1.75;;;34.90;25.60;;;;;;5055633;28;20097;-60
2023/08/03 07:20:35;;;;;;;2.33;1.30;;;34.90;25.50;;;;;;5057733;28;20161;-60
2023/08/03 07:23:01;;;;;;;4.15;1.73;;;34.90;25.50;;;;;;5050962;28;20207;-58
2023/08/03 07:25:28;;;;;;;3.60;1.70;;;34.90;25.70;;;;;;5051173;28;21234;-61
2023/08/03 07:27:55;;;;;;;4.85;1.90;;;34.90;25.60;;;;;;5054293;28;20080;-61
2023/08/03 07:30:21;;;;;;;5.93;2.10;;;34.90;25.50;;;;;;5052400;28;20159;-59
2023/08/03 07:32:47;;;;;;;3.92;1.60;;;34.80;25.50;;;;;;5052564;28;20077;-61
2023/08/03 07:35:14;;;;;;;5.07;1.80;;;34.80;25.60;;;;;;5054405;28;20104;-58
2023/08/03 07:37:40;;;;;;;5.70;1.60;;;34.80;25.40;;;;;;5054202;28;20170;-61
2023/08/03 07:40:07;;;;;;;5.82;1.98;;;34.80;25.30;;;;;;5054194;28;20077;-61
2023/08/03 07:42:34;;;;;;;3.67;1.77;;;34.80;25.50;;;;;;5055464;28;20171;-58
2023/08/03 07:45:01;;;;;;;2.20;1.63;;;34.80;25.60;;;;;;5059958;28;20100;-62
2023/08/03 07:47:27;;;;;;;3.40;1.83;;;34.80;25.70;;;;;;5058076;28;20091;-60
2023/08/03 07:49:55;;;;;;;3.40;1.60;;;34.70;25.40;;;;;;5058029;28;20163;-57
2023/08/03 07:52:21;;;;;;;5.63;1.60;;;34.70;25.80;;;;;;5058879;28;20083;-56
2023/08/03 07:54:48;;;;;;;4.50;2.10;;;34.70;26.00;;;;;;5063771;28;20117;-59
2023/08/03 07:57:15;;;;;;;3.63;1.88;;;34.60;26.20;;;;;;5059293;28;20111;-59
2023/08/03 07:59:51;;;;;;;3.15;1.70;;;34.60;26.40;;;;;;5059008;28;20085;-58
2023/08/03 08:02:18;;;;;;;7.90;1.90;;;34.50;26.50;;;;;;5059844;28;20086;-60
2023/08/03 08:04:49;;;;;;;8.70;2.03;;;34.40;26.40;;;;;;5060870;28;20100;-57
2023/08/03 08:07:16;;;;;;;10.65;1.85;;;34.30;26.60;;;;;;5054200;28;20077;-56
2023/08/03 08:09:42;;;;;;;3.45;1.90;;;34.20;26.90;;;;;;5054532;28;20107;-59
2023/08/03 08:12:09;;;;;;;7.85;2.00;;;34.20;26.60;;;;;;5056381;28;20103;-58
2023/08/03 08:14:35;;;;;;;4.40;1.92;;;34.20;26.50;;;;;;5055329;28;20084;-57
2023/08/03 08:17:02;;;;;;;5.63;1.80;;;34.20;26.90;;;;;;5054504;28;20085;-57
2023/08/03 08:19:29;;;;;;;4.13;1.75;;;34.20;26.80;;;;;;5053344;28;20096;-54
2023/08/03 08:21:56;;;;;;;4.88;1.65;;;34.10;26.80;;;;;;5052984;28;20084;-59
2023/08/03 08:24:22;;;;;;;4.10;1.80;;;34.10;26.90;;;;;;5053006;28;20553;-59
2023/08/03 08:26:49;;;;;;;5.65;2.40;;;34.00;26.70;;;;;;5053178;28;20092;-57
2023/08/03 08:29:15;;;;;;;6.97;3.25;;;33.90;26.30;;;;;;5059611;28;20087;-59
2023/08/03 08:31:41;;;;;;;6.10;3.03;;;33.90;26.30;;;;;;5056607;28;20084;-60
2023/08/03 08:34:08;;;;;;;6.13;3.10;;;33.90;26.20;;;;;;5058256;28;20075;-58
2023/08/03 08:36:34;;;;;;;14.00;2.55;;;33.90;25.70;;;;;;5060248;28;20086;-58
2023/08/03 08:39:00;;;;;;;5.50;2.28;;;33.80;25.70;;;;;;5059799;28;20487;-62
2023/08/03 08:41:28;;;;;;;3.65;2.30;;;33.80;25.70;;;;;;5056874;28;20080;-58
2023/08/03 08:43:54;;;;;;;5.50;1.92;;;33.80;25.80;;;;;;5056313;28;20083;-58
2023/08/03 08:46:21;;;;;;;10.77;2.30;;;33.80;25.70;;;;;;5054368;28;20454;-60
2023/08/03 08:48:47;;;;;;;2.63;1.58;;;33.80;25.30;;;;;;5057700;28;20175;-60
2023/08/03 08:51:16;;;;;;;5.90;1.60;;;33.80;25.60;;;;;;5055485;28;20075;-61
2023/08/03 08:53:42;;;;;;;3.55;1.40;;;33.80;25.80;;;;;;5058907;28;20084;-56
2023/08/03 08:56:09;;;;;;;4.93;1.48;;;33.70;25.70;;;;;;5059277;28;20569;-58
2023/08/03 08:58:35;;;;;;;6.60;1.95;;;33.70;25.30;;;;;;5056295;28;20098;-57
2023/08/03 09:01:05;;;;;;;2.35;1.42;;;33.70;25.50;;;;;;5055482;28;20093;-57
2023/08/03 09:03:49;;;;;;;4.05;1.50;;;33.60;25.30;;;;;;5058254;28;20153;-58
2023/08/03 09:06:15;;;;;;;4.75;1.58;;;33.60;25.20;;;;;;5054529;28;20096;-58
2023/08/03 09:08:55;;;;;;;3.45;1.80;;;33.60;25.40;;;;;;5054019;28;20168;-59
2023/08/03 09:11:37;;;;;;;4.85;1.63;;;33.60;25.10;;;;;;5052784;28;20596;-58
2023/08/03 09:14:09;;;;;;;3.63;1.40;;;33.50;26.40;;;;;;5058643;28;20084;-58
2023/08/03 09:16:37;;;;;;;4.63;1.60;;;33.50;26.30;;;;;;5057371;28;20084;-59
2023/08/03 09:19:03;;;;;;;4.22;1.88;;;33.50;26.70;;;;;;5057316;28;20112;-58
2023/08/03 09:21:30;;;;;;;1.85;1.40;;;33.40;26.50;;;;;;5055302;28;20092;-58
2023/08/03 09:23:57;;;;;;;2.53;1.40;;;33.30;26.40;;;;;;5050149;28;20103;-58
2023/08/03 09:26:24;;;;;;;4.65;1.42;;;33.20;27.40;;;;;;5052422;28;20100;-56
2023/08/03 09:28:51;;;;;;;4.00;1.73;;;33.10;27.80;;;;;;5053391;28;20092;-60
2023/08/03 09:31:23;;;;;;;8.30;1.77;;;33.10;28.30;;;;;;5059912;28;20075;-59
2023/08/03 09:33:58;;;;;;;7.85;1.85;;;33.00;28.10;;;;;;5053950;28;20085;-59
2023/08/03 09:36:26;;;;;;;4.30;1.58;;;32.80;28.00;;;;;;5053660;28;20076;-58
2023/08/03 09:38:52;;;;;;;5.03;2.03;;;32.70;27.80;;;;;;5052639;28;20084;-57
2023/08/03 09:41:35;;;;;;;2.60;1.75;;;32.60;28.10;;;;;;5052831;28;20084;-61
2023/08/03 09:44:04;;;;;;;2.80;1.50;;;32.50;28.60;;;;;;5053981;28;20088;-58
2023/08/03 09:46:31;;;;;;;3.00;1.60;;;32.40;28.30;;;;;;5054238;28;20084;-61
2023/08/03 09:48:58;;;;;;;6.03;1.73;;;32.30;28.10;;;;;;5058241;28;20075;-58
2023/08/03 09:51:36;;;;;;;5.28;2.00;;;32.30;28.80;;;;;;5058322;28;20076;-59
2023/08/03 09:54:25;;;;;;;5.90;1.90;;;32.20;29.00;;;;;;5051376;28;20081;-58
2023/08/03 09:56:58;;;;;;;6.68;2.30;;;32.20;29.50;;;;;;5049962;28;20144;-59
2023/08/03 09:59:27;;;;;;;5.55;2.53;;;32.10;29.00;;;;;;5050178;28;20087;-59
2023/08/03 10:01:58;;;;;;;8.02;2.95;;;32.00;28.80;;;;;;5053097;28;20081;-62
2023/08/03 10:04:29;;;;;;;7.03;2.58;;;32.00;28.70;;;;;;5053003;28;20432;-58
2023/08/03 10:07:01;;;;;;;6.32;2.88;;;31.90;28.60;;;;;;5052026;28;20078;-55
2023/08/03 10:09:33;;;;;;;10.70;3.05;;;31.90;28.90;;;;;;5050357;28;20097;-60
2023/08/03 10:12:03;;;;;;;9.80;2.83;;;31.80;28.70;;;;;;5052152;28;20084;-60
2023/08/03 10:14:33;;;;;;;8.85;3.10;;;31.80;28.80;;;;;;5053862;28;20092;-59
2023/08/03 10:17:00;;;;;;;15.85;3.55;;;31.80;29.40;;;;;;5058331;28;20088;-61
2023/08/03 10:19:28;;;;;;;13.05;3.67;;;31.80;30.10;;;;;;5053558;28;20103;-59
2023/08/03 10:21:55;;;;;;;8.23;3.42;;;31.70;29.60;;;;;;5051492;28;20154;-60
2023/08/03 10:24:21;;;;;;;5.22;2.75;;;31.70;30.80;;;;;;5058567;28;20105;-56
2023/08/03 10:26:54;;;;;;;7.32;2.90;;;31.70;29.80;;;;;;5053109;28;20227;-58
2023/08/03 10:29:48;;;;;;;11.57;3.53;;;31.70;30.00;;;;;;5054143;28;20137;-58
2023/08/03 10:32:22;;;;;;;13.77;3.65;;;31.60;31.00;;;;;;5052656;28;20087;-59
2023/08/03 10:34:51;;;;;;;10.07;3.92;;;31.60;31.10;;;;;;5051611;28;20550;-58
2023/08/03 10:37:20;;;;;;;19.08;3.53;;;31.60;29.90;;;;;;5054506;28;20107;-58
2023/08/03 10:39:49;;;;;;;17.48;3.83;;;31.40;32.50;;;;;;5052238;28;20072;-57
2023/08/03 10:42:30;;;;;;;12.10;3.75;;;31.40;31.60;;;;;;5057356;28;20081;-58
2023/08/03 10:45:22;;;;;;;20.15;4.22;;;31.40;31.50;;;;;;5050370;28;20596;-58
2023/08/03 10:47:49;;;;;;;18.40;4.13;;;31.30;32.00;;;;;;5053349;28;20098;-58
2023/08/03 10:50:15;;;;;;;19.13;4.78;;;31.20;31.20;;;;;;5051176;28;20076;-57
2023/08/03 10:52:42;;;;;;;13.98;3.92;;;31.20;32.20;;;;;;5059705;28;20080;-56
2023/08/03 10:55:22;;;;;;;14.63;3.97;;;31.20;32.40;;;;;;5054858;28;20096;-57
2023/08/03 10:57:48;;;;;;;12.32;4.40;;;31.10;32.10;;;;;;5052845;28;20221;-58
2023/08/03 11:00:16;;;;;;;17.42;3.83;;;31.10;33.00;;;;;;5049459;28;20084;-57
2023/08/03 11:02:43;;;;;;;12.95;3.97;;;31.10;33.00;;;;;;5060193;28;20123;-58
2023/08/03 11:05:12;;;;;;;14.27;4.03;;;30.90;33.20;;;;;;5051414;28;20104;-59
2023/08/03 11:07:44;;;;;;;17.70;3.70;;;30.80;33.90;;;;;;5052924;28;20108;-57
2023/08/03 11:10:13;;;;;;;14.80;4.60;;;30.80;34.50;;;;;;5055475;28;20458;-59
2023/08/03 11:12:41;;;;;;;15.20;4.70;;;30.80;34.80;;;;;;5054353;28;20554;-56
2023/08/03 11:15:08;;;;;;;10.95;4.28;;;30.70;35.20;;;;;;5059044;28;20104;-61
2023/08/03 11:17:36;;;;;;;13.82;4.38;;;30.80;36.70;;;;;;5055785;28;20172;-59
2023/08/03 11:20:04;;;;;;;15.27;4.47;;;30.70;36.40;;;;;;5066011;28;20084;-58
2023/08/03 11:22:31;;;;;;;12.82;4.25;;;30.70;35.90;;;;;;5055940;28;20084;-59
2023/08/03 11:25:04;;;;;;;10.90;3.50;;;30.60;36.00;;;;;;5058354;28;20104;-58
2023/08/03 11:27:30;;;;;;;12.95;3.38;;;30.60;36.70;;;;;;5054942;28;20089;-59
2023/08/03 11:29:57;;;;;;;13.05;3.80;;;30.50;36.80;;;;;;5056346;28;20077;-62
2023/08/03 11:32:29;;;;;;;11.07;3.40;;;30.50;37.00;;;;;;5055416;28;20591;-56
2023/08/03 11:35:07;;;;;;;8.38;3.17;;;30.50;37.00;;;;;;5056714;28;20485;-59
2023/08/03 11:37:36;;;;;;;9.75;3.20;;;30.50;36.80;;;;;;5056995;28;20568;-61
2023/08/03 11:40:05;;;;;;;8.27;3.30;;;30.40;37.50;;;;;;5051966;28;20077;-63
2023/08/03 11:42:33;;;;;;;8.70;3.22;;;30.40;37.70;;;;;;5058454;28;20434;-60
2023/08/03 11:45:00;;;;;;;13.35;3.28;;;30.40;38.40;;;;;;5060295;28;20089;-59
2023/08/03 11:47:43;;;;;;;12.02;3.60;;;30.30;37.90;;;;;;5065127;28;20126;-57
2023/08/03 11:50:10;;;;;;;11.32;3.20;;;30.30;37.80;;;;;;5060877;28;20073;-59
2023/08/03 11:52:36;;;;;;;11.65;2.92;;;30.30;38.70;;;;;;5060390;28;20131;-58
2023/08/03 11:55:03;;;;;;;6.90;3.38;;;30.30;38.30;;;;;;5055894;28;20081;-58
2023/08/03 12:00:14;;;;;;;9.57;2.63;;;30.10;37.70;;;;;;5053400;28;20525;-58
2023/08/03 12:02:45;;;;;;;12.13;2.97;;;30.10;38.20;;;;;;5054520;28;20494;-59
2023/08/03 12:05:12;;;;;;;10.65;3.10;;;30.00;39.40;;;;;;5054116;28;20097;-59
2023/08/03 12:07:40;;;;;;;8.63;3.25;;;30.00;39.30;;;;;;5062522;28;20150;-60
2023/08/03 12:10:14;;;;;;;12.55;2.70;;;30.00;38.70;;;;;;5059813;28;20150;-61
2023/08/03 12:12:42;;;;;;;10.65;3.20;;;30.00;38.40;;;;;;5057597;28;20084;-59
2023/08/03 12:15:10;;;;;;;17.40;3.60;;;30.00;38.90;;;;;;5061741;28;20542;-59
2023/08/03 12:17:37;;;;;;;9.68;3.38;;;29.90;38.90;;;;;;5056171;28;20089;-58
2023/08/03 12:20:05;;;;;;;12.00;3.00;;;29.90;40.20;;;;;;5052461;28;20086;-58
2023/08/03 12:22:33;;;;;;;9.30;3.15;;;29.80;39.40;;;;;;5055033;28;20555;-59
2023/08/03 12:24:59;;;;;;;8.63;3.20;;;29.70;39.50;;;;;;5055736;28;20101;-58
2023/08/03 12:27:25;;;;;;;11.18;3.05;;;29.70;40.00;;;;;;5060039;28;20082;-59
2023/08/03 12:29:52;;;;;;;16.48;4.07;;;29.70;40.90;;;;;;5057686;28;20523;-58
2023/08/03 12:32:18;;;;;;;14.70;3.92;;;29.70;40.60;;;;;;5056043;28;20089;-59
2023/08/03 12:34:45;;;;;;;8.20;3.55;;;29.60;41.70;;;;;;5054078;28;20497;-59
2023/08/03 12:37:11;;;;;;;11.88;3.60;;;29.60;42.80;;;;;;5053595;28;20081;-53
2023/08/03 12:39:37;;;;;;;11.73;3.95;;;29.50;43.00;;;;;;5053987;28;21761;-59
2023/08/03 12:42:04;;;;;;;11.57;4.20;;;29.50;42.90;;;;;;5057407;28;20081;-61
2023/08/03 12:44:30;;;;;;;16.02;3.67;;;29.40;43.00;;;;;;5057561;28;20089;-59
2023/08/03 12:46:57;;;;;;;11.52;3.40;;;29.40;42.50;;;;;;5058307;28;20601;-59
2023/08/03 12:49:23;;;;;;;13.02;3.85;;;29.40;42.40;;;;;;5054257;28;20132;-58